createdAt,value
2022-12-14T00:00:33.060Z,998.97
2022-12-14T00:01:32.991Z,998.94
2022-12-14T00:02:33.096Z,999.01
2022-12-14T00:03:32.964Z,998.99
2022-12-14T00:04:32.906Z,998.95
2022-12-14T00:05:32.877Z,998.95
2022-12-14T00:06:32.848Z,998.93
2022-12-14T00:07:32.821Z,998.91
2022-12-14T00:08:36.824Z,998.90
2022-12-14T00:09:32.763Z,998.94
2022-12-14T00:10:32.743Z,998.91
2022-12-14T00:11:32.723Z,998.92
2022-12-14T00:12:32.680Z,998.95
2022-12-14T00:13:32.655Z,998.92
2022-12-14T00:14:32.629Z,998.91
2022-12-14T00:15:32.700Z,998.89
2022-12-14T00:16:32.579Z,998.92
2022-12-14T00:17:32.542Z,998.89
2022-12-14T00:18:32.519Z,998.91
2022-12-14T00:19:32.489Z,998.88
2022-12-14T00:20:32.462Z,998.80
2022-12-14T00:21:32.429Z,998.85
2022-12-14T00:22:32.405Z,998.82
2022-12-14T00:23:37.194Z,998.80
2022-12-14T00:24:32.352Z,998.79
2022-12-14T00:25:32.319Z,998.79
2022-12-14T00:26:32.304Z,998.75
2022-12-14T00:27:32.264Z,998.76
2022-12-14T00:28:32.253Z,998.76
2022-12-14T00:29:32.209Z,998.78
2022-12-14T00:30:32.182Z,998.75
2022-12-14T00:31:32.495Z,998.74
2022-12-14T00:32:32.131Z,998.76
2022-12-14T00:33:32.097Z,998.78
2022-12-14T00:34:32.074Z,998.73
2022-12-14T00:35:32.040Z,998.72
2022-12-14T00:36:32.226Z,998.70
2022-12-14T00:37:31.992Z,998.68
2022-12-14T00:38:31.968Z,998.66
2022-12-14T00:39:31.928Z,998.64
2022-12-14T00:40:31.906Z,998.66
2022-12-14T00:41:31.879Z,998.63
2022-12-14T00:42:31.852Z,998.69
2022-12-14T00:43:31.817Z,998.63
2022-12-14T00:44:31.797Z,998.58
2022-12-14T00:45:31.764Z,998.54
2022-12-14T00:46:31.835Z,998.55
2022-12-14T00:47:36.180Z,998.51
2022-12-14T00:48:32.203Z,998.44
2022-12-14T00:49:31.657Z,998.49
2022-12-14T00:50:31.626Z,998.46
2022-12-14T00:51:31.600Z,998.47
2022-12-14T00:52:31.577Z,998.47
2022-12-14T00:53:31.542Z,998.51
2022-12-14T00:54:31.522Z,998.48
2022-12-14T00:55:31.484Z,998.50
2022-12-14T00:56:31.465Z,998.53
2022-12-14T00:57:31.433Z,998.46
2022-12-14T00:58:31.657Z,998.48
2022-12-14T00:59:31.376Z,998.51
2022-12-14T01:00:31.352Z,998.50
2022-12-14T01:01:31.444Z,998.51
2022-12-14T01:02:31.383Z,998.52
2022-12-14T01:03:32.057Z,998.54
2022-12-14T01:04:31.240Z,998.55
2022-12-14T01:05:31.211Z,998.51
2022-12-14T01:06:31.187Z,998.54
2022-12-14T01:07:31.153Z,998.55
2022-12-14T01:08:31.128Z,998.53
2022-12-14T01:09:31.100Z,998.53
2022-12-14T01:10:31.072Z,998.54
2022-12-14T01:11:31.041Z,998.50
2022-12-14T01:12:31.017Z,998.44
2022-12-14T01:13:30.989Z,998.44
2022-12-14T01:14:30.962Z,998.48
2022-12-14T01:15:30.935Z,998.46
2022-12-14T01:16:30.955Z,998.42
2022-12-14T01:17:30.874Z,998.46
2022-12-14T01:18:30.850Z,998.42
2022-12-14T01:19:30.839Z,998.44
2022-12-14T01:20:30.795Z,998.41
2022-12-14T01:21:30.765Z,998.45
2022-12-14T01:22:30.737Z,998.41
2022-12-14T01:23:30.710Z,998.40
2022-12-14T01:24:30.738Z,998.37
2022-12-14T01:25:30.652Z,998.35
2022-12-14T01:26:30.627Z,998.31
2022-12-14T01:27:30.598Z,998.33
2022-12-14T01:28:30.581Z,998.30
2022-12-14T01:29:30.543Z,998.25
2022-12-14T01:30:30.516Z,998.25
2022-12-14T01:31:30.573Z,998.25
2022-12-14T01:32:30.467Z,998.22
2022-12-14T01:33:30.585Z,998.19
2022-12-14T01:34:30.405Z,998.17
2022-12-14T01:35:30.400Z,998.17
2022-12-14T01:36:30.355Z,998.15
2022-12-14T01:37:30.318Z,998.17
2022-12-14T01:38:30.295Z,998.16
2022-12-14T01:39:30.269Z,998.14
2022-12-14T01:40:30.246Z,998.11
2022-12-14T01:41:30.205Z,998.08
2022-12-14T01:42:30.185Z,998.10
2022-12-14T01:43:30.287Z,998.09
2022-12-14T01:44:30.130Z,998.04
2022-12-14T01:45:30.097Z,998.06
2022-12-14T01:46:30.118Z,998.02
2022-12-14T01:47:30.041Z,997.97
2022-12-14T01:48:30.021Z,997.95
2022-12-14T01:49:29.989Z,997.92
2022-12-14T01:50:29.964Z,997.91
2022-12-14T01:51:29.969Z,997.88
2022-12-14T01:52:29.908Z,997.89
2022-12-14T01:53:30.253Z,997.92
2022-12-14T01:54:29.853Z,997.88
2022-12-14T01:55:29.818Z,997.85
2022-12-14T01:56:29.795Z,997.79
2022-12-14T01:57:29.768Z,997.72
2022-12-14T01:58:29.744Z,997.76
2022-12-14T01:59:29.710Z,997.72
2022-12-14T02:00:29.689Z,997.75
2022-12-14T02:01:29.749Z,997.73
2022-12-14T02:02:29.792Z,997.67
2022-12-14T02:03:30.014Z,997.68
2022-12-14T02:04:29.574Z,997.69
2022-12-14T02:05:29.543Z,997.70
2022-12-14T02:06:29.517Z,997.72
2022-12-14T02:07:29.508Z,997.67
2022-12-14T02:08:29.467Z,997.68
2022-12-14T02:09:29.431Z,997.64
2022-12-14T02:10:29.410Z,997.67
2022-12-14T02:11:29.386Z,997.62
2022-12-14T02:12:29.354Z,997.61
2022-12-14T02:13:29.799Z,997.63
2022-12-14T02:14:29.299Z,997.57
2022-12-14T02:15:29.266Z,997.55
2022-12-14T02:16:29.290Z,997.55
2022-12-14T02:17:29.208Z,997.55
2022-12-14T02:18:29.186Z,997.52
2022-12-14T02:19:29.152Z,997.56
2022-12-14T02:20:29.128Z,997.54
2022-12-14T02:21:29.099Z,997.53
2022-12-14T02:22:29.070Z,997.51
2022-12-14T02:23:29.589Z,997.53
2022-12-14T02:24:29.018Z,997.49
2022-12-14T02:25:28.985Z,997.51
2022-12-14T02:26:28.958Z,997.51
2022-12-14T02:27:28.930Z,997.53
2022-12-14T02:28:28.908Z,997.54
2022-12-14T02:29:28.880Z,997.54
2022-12-14T02:30:28.853Z,997.54
2022-12-14T02:31:28.865Z,997.54
2022-12-14T02:32:28.796Z,997.54
2022-12-14T02:33:29.328Z,997.54
2022-12-14T02:34:28.738Z,997.59
2022-12-14T02:35:28.710Z,997.53
2022-12-14T02:36:28.683Z,997.56
2022-12-14T02:37:28.651Z,997.54
2022-12-14T02:38:28.625Z,997.49
2022-12-14T02:39:28.621Z,997.51
2022-12-14T02:40:28.571Z,997.49
2022-12-14T02:41:28.539Z,997.44
2022-12-14T02:42:28.511Z,997.43
2022-12-14T02:43:28.951Z,997.46
2022-12-14T02:44:28.464Z,997.41
2022-12-14T02:45:28.426Z,997.43
2022-12-14T02:46:28.465Z,997.44
2022-12-14T02:47:28.377Z,997.44
2022-12-14T02:48:28.349Z,997.43
2022-12-14T02:49:28.316Z,997.47
2022-12-14T02:50:28.293Z,997.43
2022-12-14T02:51:28.262Z,997.45
2022-12-14T02:52:28.238Z,997.45
2022-12-14T02:53:28.544Z,997.43
2022-12-14T02:54:28.180Z,997.45
2022-12-14T02:55:28.226Z,997.46
2022-12-14T02:56:28.129Z,997.45
2022-12-14T02:57:28.093Z,997.40
2022-12-14T02:58:28.082Z,997.34
2022-12-14T02:59:28.039Z,997.30
2022-12-14T03:00:28.013Z,997.29
2022-12-14T03:01:28.108Z,997.27
2022-12-14T03:02:28.166Z,997.28
2022-12-14T03:03:28.307Z,997.27
2022-12-14T03:04:27.906Z,997.27
2022-12-14T03:05:27.870Z,997.22
2022-12-14T03:06:27.849Z,997.14
2022-12-14T03:07:27.817Z,997.09
2022-12-14T03:08:27.791Z,997.09
2022-12-14T03:09:27.760Z,997.09
2022-12-14T03:10:27.737Z,997.09
2022-12-14T03:11:27.728Z,997.09
2022-12-14T03:12:27.676Z,997.07
2022-12-14T03:13:28.055Z,997.07
2022-12-14T03:14:27.627Z,997.06
2022-12-14T03:15:27.591Z,997.04
2022-12-14T03:16:27.654Z,997.06
2022-12-14T03:17:27.534Z,997.02
2022-12-14T03:18:27.514Z,997.05
2022-12-14T03:19:27.484Z,996.99
2022-12-14T03:20:27.453Z,996.99
2022-12-14T03:21:27.424Z,996.99
2022-12-14T03:22:27.397Z,996.97
2022-12-14T03:23:27.778Z,996.94
2022-12-14T03:24:27.344Z,996.90
2022-12-14T03:25:27.311Z,996.84
2022-12-14T03:26:27.285Z,996.83
2022-12-14T03:27:27.279Z,996.87
2022-12-14T03:28:27.238Z,996.83
2022-12-14T03:29:27.202Z,996.85
2022-12-14T03:30:58.354Z,996.84
2022-12-14T03:31:27.208Z,996.86
2022-12-14T03:32:27.119Z,996.81
2022-12-14T03:33:27.563Z,996.79
2022-12-14T03:34:27.070Z,996.75
2022-12-14T03:35:27.033Z,996.78
2022-12-14T03:36:27.010Z,996.72
2022-12-14T03:37:26.977Z,996.69
2022-12-14T03:38:26.953Z,996.70
2022-12-14T03:39:26.933Z,996.63
2022-12-14T03:40:26.901Z,996.68
2022-12-14T03:41:26.864Z,996.66
2022-12-14T03:42:26.845Z,996.61
2022-12-14T03:43:27.266Z,996.62
2022-12-14T03:44:26.812Z,996.63
2022-12-14T03:45:26.835Z,996.59
2022-12-14T03:46:26.728Z,996.64
2022-12-14T03:47:26.698Z,996.64
2022-12-14T03:48:26.674Z,996.66
2022-12-14T03:49:26.643Z,996.69
2022-12-14T03:50:26.620Z,996.64
2022-12-14T03:51:26.589Z,996.66
2022-12-14T03:52:26.559Z,996.59
2022-12-14T03:53:26.902Z,996.63
2022-12-14T03:54:26.503Z,996.59
2022-12-14T03:55:26.474Z,996.58
2022-12-14T03:56:26.456Z,996.57
2022-12-14T03:57:26.418Z,996.55
2022-12-14T03:58:26.391Z,996.53
2022-12-14T03:59:26.382Z,996.50
2022-12-14T04:00:26.339Z,996.46
2022-12-14T04:01:26.448Z,996.49
2022-12-14T04:02:26.417Z,996.50
2022-12-14T04:03:26.717Z,996.52
2022-12-14T04:04:26.231Z,996.50
2022-12-14T04:05:26.200Z,996.50
2022-12-14T04:06:26.168Z,996.48
2022-12-14T04:07:26.135Z,996.50
2022-12-14T04:08:26.112Z,996.44
2022-12-14T04:09:26.081Z,996.45
2022-12-14T04:10:26.053Z,996.44
2022-12-14T04:11:26.028Z,996.38
2022-12-14T04:12:25.999Z,996.34
2022-12-14T04:13:26.381Z,996.36
2022-12-14T04:14:25.947Z,996.29
2022-12-14T04:15:25.938Z,996.32
2022-12-14T04:16:25.991Z,996.32
2022-12-14T04:17:25.857Z,996.26
2022-12-14T04:18:25.835Z,996.26
2022-12-14T04:19:25.807Z,996.24
2022-12-14T04:20:25.775Z,996.28
2022-12-14T04:21:25.745Z,996.29
2022-12-14T04:22:25.718Z,996.25
2022-12-14T04:23:26.039Z,996.26
2022-12-14T04:24:25.664Z,996.25
2022-12-14T04:25:25.632Z,996.22
2022-12-14T04:26:25.609Z,996.21
2022-12-14T04:27:25.574Z,996.18
2022-12-14T04:28:25.554Z,996.12
2022-12-14T04:29:25.519Z,996.12
2022-12-14T04:30:25.497Z,996.12
2022-12-14T04:31:25.541Z,996.12
2022-12-14T04:32:25.469Z,996.12
2022-12-14T04:33:25.994Z,996.10
2022-12-14T04:34:25.388Z,996.08
2022-12-14T04:35:25.360Z,996.09
2022-12-14T04:36:25.337Z,996.12
2022-12-14T04:37:25.296Z,996.08
2022-12-14T04:38:25.275Z,996.08
2022-12-14T04:39:25.241Z,996.09
2022-12-14T04:40:25.214Z,996.04
2022-12-14T04:41:25.184Z,996.07
2022-12-14T04:42:25.162Z,996.04
2022-12-14T04:43:25.497Z,996.02
2022-12-14T04:44:25.103Z,996.01
2022-12-14T04:45:25.070Z,995.99
2022-12-14T04:46:25.050Z,996.00
2022-12-14T04:47:25.041Z,996.03
2022-12-14T04:48:24.996Z,996.00
2022-12-14T04:49:24.963Z,996.00
2022-12-14T04:50:24.933Z,996.02
2022-12-14T04:51:24.909Z,995.96
2022-12-14T04:52:24.877Z,995.96
2022-12-14T04:53:25.106Z,995.97
2022-12-14T04:54:24.827Z,995.97
2022-12-14T04:55:24.796Z,995.92
2022-12-14T04:56:24.763Z,995.86
2022-12-14T04:57:24.734Z,995.88
2022-12-14T04:58:24.705Z,995.89
2022-12-14T04:59:24.676Z,995.84
2022-12-14T05:00:24.654Z,995.88
2022-12-14T05:01:24.706Z,995.85
2022-12-14T05:02:24.779Z,995.82
2022-12-14T05:03:24.623Z,995.80
2022-12-14T05:04:24.540Z,995.77
2022-12-14T05:05:24.506Z,995.72
2022-12-14T05:06:24.479Z,995.78
2022-12-14T05:07:24.458Z,995.70
2022-12-14T05:08:24.429Z,995.71
2022-12-14T05:09:24.395Z,995.71
2022-12-14T05:10:24.367Z,995.65
2022-12-14T05:11:53.577Z,995.60
2022-12-14T05:12:24.311Z,995.59
2022-12-14T05:13:24.565Z,995.57
2022-12-14T05:14:24.259Z,995.61
2022-12-14T05:15:24.224Z,995.59
2022-12-14T05:16:24.285Z,995.58
2022-12-14T05:17:24.167Z,995.58
2022-12-14T05:18:24.142Z,995.61
2022-12-14T05:19:24.131Z,995.59
2022-12-14T05:20:24.086Z,995.55
2022-12-14T05:21:24.056Z,995.53
2022-12-14T05:22:24.028Z,995.51
2022-12-14T05:23:24.057Z,995.51
2022-12-14T05:24:23.975Z,995.46
2022-12-14T05:25:23.941Z,995.44
2022-12-14T05:26:23.920Z,995.46
2022-12-14T05:27:23.890Z,995.46
2022-12-14T05:28:23.869Z,995.43
2022-12-14T05:29:23.828Z,995.44
2022-12-14T05:30:23.891Z,995.44
2022-12-14T05:31:23.780Z,995.44
2022-12-14T05:32:23.748Z,995.46
2022-12-14T05:33:23.718Z,995.43
2022-12-14T05:34:23.690Z,995.46
2022-12-14T05:35:23.681Z,995.37
2022-12-14T05:36:23.635Z,995.43
2022-12-14T05:37:23.608Z,995.45
2022-12-14T05:38:23.578Z,995.42
2022-12-14T05:39:23.546Z,995.40
2022-12-14T05:40:23.524Z,995.43
2022-12-14T05:41:23.489Z,995.41
2022-12-14T05:42:23.467Z,995.40
2022-12-14T05:43:23.434Z,995.40
2022-12-14T05:44:23.409Z,995.42
2022-12-14T05:45:23.376Z,995.41
2022-12-14T05:46:23.385Z,995.38
2022-12-14T05:47:23.320Z,995.37
2022-12-14T05:48:23.296Z,995.34
2022-12-14T05:49:23.273Z,995.34
2022-12-14T05:50:23.237Z,995.31
2022-12-14T05:51:23.236Z,995.33
2022-12-14T05:52:23.181Z,995.34
2022-12-14T05:53:23.154Z,995.32
2022-12-14T05:54:23.122Z,995.29
2022-12-14T05:55:23.097Z,995.29
2022-12-14T05:56:23.069Z,995.27
2022-12-14T05:57:23.038Z,995.27
2022-12-14T05:58:23.014Z,995.24
2022-12-14T05:59:22.983Z,995.27
2022-12-14T06:00:22.962Z,995.24
2022-12-14T06:01:23.107Z,995.26
2022-12-14T06:02:23.012Z,995.26
2022-12-14T06:03:22.870Z,995.23
2022-12-14T06:04:22.896Z,995.22
2022-12-14T06:05:22.812Z,995.24
2022-12-14T06:06:22.790Z,995.18
2022-12-14T06:07:27.548Z,995.15
2022-12-14T06:08:22.737Z,995.19
2022-12-14T06:09:22.707Z,995.17
2022-12-14T06:10:22.674Z,995.18
2022-12-14T06:11:22.643Z,995.18
2022-12-14T06:12:22.615Z,995.14
2022-12-14T06:13:22.586Z,995.15
2022-12-14T06:14:22.559Z,995.14
2022-12-14T06:15:22.535Z,995.15
2022-12-14T06:16:22.604Z,995.16
2022-12-14T06:17:22.470Z,995.15
2022-12-14T06:18:22.450Z,995.12
2022-12-14T06:19:22.415Z,995.13
2022-12-14T06:20:22.389Z,995.13
2022-12-14T06:21:22.361Z,995.10
2022-12-14T06:22:22.336Z,995.08
2022-12-14T06:23:22.327Z,995.05
2022-12-14T06:24:22.276Z,995.07
2022-12-14T06:25:22.244Z,995.06
2022-12-14T06:26:22.220Z,995.05
2022-12-14T06:27:22.242Z,995.05
2022-12-14T06:28:22.168Z,995.04
2022-12-14T06:29:22.137Z,995.05
2022-12-14T06:30:22.110Z,995.03
2022-12-14T06:31:22.170Z,995.04
2022-12-14T06:32:22.055Z,995.04
2022-12-14T06:33:22.023Z,995.06
2022-12-14T06:34:28.056Z,995.03
2022-12-14T06:35:21.966Z,995.01
2022-12-14T06:36:21.943Z,995.01
2022-12-14T06:37:21.957Z,995.01
2022-12-14T06:38:21.893Z,994.95
2022-12-14T06:39:21.876Z,994.95
2022-12-14T06:40:21.827Z,994.94
2022-12-14T06:41:21.802Z,994.92
2022-12-14T06:42:21.770Z,994.93
2022-12-14T06:43:21.740Z,994.88
2022-12-14T06:44:21.715Z,994.90
2022-12-14T06:45:21.686Z,994.87
2022-12-14T06:46:21.808Z,994.87
2022-12-14T06:47:21.626Z,994.90
2022-12-14T06:48:21.604Z,994.89
2022-12-14T06:49:21.570Z,994.87
2022-12-14T06:50:21.542Z,994.86
2022-12-14T06:51:21.513Z,994.85
2022-12-14T06:52:26.518Z,994.84
2022-12-14T06:53:21.457Z,994.83
2022-12-14T06:54:21.428Z,994.82
2022-12-14T06:55:21.419Z,994.85
2022-12-14T06:56:21.379Z,994.84
2022-12-14T06:57:21.338Z,994.85
2022-12-14T06:58:21.319Z,994.85
2022-12-14T06:59:21.283Z,994.87
2022-12-14T07:00:21.262Z,994.86
2022-12-14T07:01:21.348Z,994.86
2022-12-14T07:02:21.427Z,994.89
2022-12-14T07:03:21.226Z,994.86
2022-12-14T07:04:21.376Z,994.86
2022-12-14T07:05:21.114Z,994.90
2022-12-14T07:06:21.097Z,994.86
2022-12-14T07:07:21.060Z,994.90
2022-12-14T07:08:21.038Z,994.91
2022-12-14T07:09:21.006Z,994.90
2022-12-14T07:10:20.974Z,994.90
2022-12-14T07:11:20.964Z,994.90
2022-12-14T07:12:20.925Z,994.88
2022-12-14T07:13:20.904Z,994.87
2022-12-14T07:14:20.869Z,994.88
2022-12-14T07:15:20.838Z,994.90
2022-12-14T07:16:20.890Z,994.93
2022-12-14T07:17:20.785Z,994.92
2022-12-14T07:18:20.754Z,994.92
2022-12-14T07:19:20.741Z,994.93
2022-12-14T07:20:20.709Z,994.94
2022-12-14T07:21:20.675Z,994.92
2022-12-14T07:22:20.642Z,994.91
2022-12-14T07:23:26.203Z,994.90
2022-12-14T07:24:20.591Z,994.92
2022-12-14T07:25:20.552Z,994.89
2022-12-14T07:26:20.529Z,994.87
2022-12-14T07:27:20.514Z,994.88
2022-12-14T07:28:20.470Z,994.86
2022-12-14T07:29:20.438Z,994.83
2022-12-14T07:30:20.413Z,994.86
2022-12-14T07:31:20.480Z,994.89
2022-12-14T07:32:20.359Z,994.90
2022-12-14T07:33:20.330Z,994.91
2022-12-14T07:34:20.301Z,994.89
2022-12-14T07:35:20.274Z,994.90
2022-12-14T07:36:20.246Z,994.92
2022-12-14T07:37:20.375Z,994.94
2022-12-14T07:38:20.190Z,994.93
2022-12-14T07:39:20.171Z,994.92
2022-12-14T07:40:20.133Z,994.90
2022-12-14T07:41:22.758Z,994.91
2022-12-14T07:42:20.316Z,994.89
2022-12-14T07:43:20.068Z,994.93
2022-12-14T07:44:20.019Z,994.92
2022-12-14T07:45:19.988Z,994.95
2022-12-14T07:46:20.136Z,994.93
2022-12-14T07:47:20.243Z,994.88
2022-12-14T07:48:19.914Z,994.94
2022-12-14T07:49:19.873Z,994.90
2022-12-14T07:50:19.850Z,994.91
2022-12-14T07:51:19.818Z,994.90
2022-12-14T07:52:19.811Z,994.94
2022-12-14T07:53:19.763Z,994.89
2022-12-14T07:54:19.734Z,994.88
2022-12-14T07:55:19.707Z,994.87
2022-12-14T07:56:19.683Z,994.89
2022-12-14T07:57:19.667Z,994.86
2022-12-14T07:58:19.628Z,994.83
2022-12-14T07:59:19.612Z,994.84
2022-12-14T08:00:19.569Z,994.84
2022-12-14T08:01:19.598Z,994.86
2022-12-14T08:02:19.663Z,994.85
2022-12-14T08:03:19.488Z,994.83
2022-12-14T08:04:19.495Z,994.86
2022-12-14T08:05:19.424Z,994.87
2022-12-14T08:06:19.403Z,994.86
2022-12-14T08:07:19.379Z,994.87
2022-12-14T08:08:19.347Z,994.89
2022-12-14T08:09:19.313Z,994.88
2022-12-14T08:10:19.290Z,994.88
2022-12-14T08:11:19.257Z,994.87
2022-12-14T08:12:19.237Z,994.93
2022-12-14T08:13:19.203Z,994.90
2022-12-14T08:14:19.189Z,994.93
2022-12-14T08:15:19.166Z,994.90
2022-12-14T08:16:19.195Z,994.91
2022-12-14T08:17:19.113Z,994.89
2022-12-14T08:18:19.066Z,994.87
2022-12-14T08:19:19.042Z,994.87
2022-12-14T08:20:19.022Z,994.87
2022-12-14T08:21:18.979Z,994.85
2022-12-14T08:22:18.957Z,994.86
2022-12-14T08:23:18.925Z,994.88
2022-12-14T08:24:18.899Z,994.86
2022-12-14T08:25:18.868Z,994.90
2022-12-14T08:26:18.842Z,994.89
2022-12-14T08:27:18.819Z,994.94
2022-12-14T08:28:18.789Z,994.93
2022-12-14T08:29:18.787Z,994.95
2022-12-14T08:30:18.734Z,994.97
2022-12-14T08:31:18.796Z,994.99
2022-12-14T08:32:18.677Z,994.97
2022-12-14T08:33:18.643Z,994.94
2022-12-14T08:34:18.616Z,994.96
2022-12-14T08:35:18.590Z,994.95
2022-12-14T08:36:18.560Z,994.95
2022-12-14T08:37:18.539Z,994.97
2022-12-14T08:38:18.514Z,994.94
2022-12-14T08:39:18.480Z,994.94
2022-12-14T08:40:18.453Z,994.98
2022-12-14T08:41:18.424Z,994.97
2022-12-14T08:42:18.397Z,994.93
2022-12-14T08:43:25.504Z,994.95
2022-12-14T08:44:18.355Z,994.94
2022-12-14T08:45:18.329Z,994.92
2022-12-14T08:46:18.359Z,994.91
2022-12-14T08:47:18.277Z,994.91
2022-12-14T08:48:18.238Z,994.96
2022-12-14T08:49:18.203Z,994.95
2022-12-14T08:50:18.179Z,994.92
2022-12-14T08:51:18.151Z,994.90
2022-12-14T08:52:18.118Z,994.92
2022-12-14T08:53:18.097Z,994.91
2022-12-14T08:54:18.062Z,994.91
2022-12-14T08:55:18.995Z,994.91
2022-12-14T08:56:18.020Z,994.90
2022-12-14T08:57:17.977Z,994.92
2022-12-14T08:58:17.955Z,994.91
2022-12-14T08:59:43.924Z,994.93
2022-12-14T09:00:17.900Z,994.93
2022-12-14T09:01:17.935Z,994.92
2022-12-14T09:02:17.955Z,994.94
2022-12-14T09:03:17.872Z,994.93
2022-12-14T09:04:17.786Z,994.91
2022-12-14T09:05:17.760Z,994.94
2022-12-14T09:06:17.733Z,994.91
2022-12-14T09:07:17.699Z,994.93
2022-12-14T09:08:17.677Z,994.91
2022-12-14T09:09:17.641Z,994.90
2022-12-14T09:10:17.632Z,994.89
2022-12-14T09:11:17.597Z,994.91
2022-12-14T09:12:17.575Z,994.87
2022-12-14T09:13:17.534Z,994.86
2022-12-14T09:14:17.511Z,994.91
2022-12-14T09:15:17.475Z,994.93
2022-12-14T09:16:17.479Z,994.94
2022-12-14T09:17:17.421Z,994.94
2022-12-14T09:18:17.400Z,994.94
2022-12-14T09:19:17.370Z,995.00
2022-12-14T09:20:17.348Z,994.98
2022-12-14T09:21:17.322Z,994.96
2022-12-14T09:22:17.344Z,994.99
2022-12-14T09:23:17.261Z,995.00
2022-12-14T09:24:17.234Z,995.02
2022-12-14T09:25:17.201Z,995.05
2022-12-14T09:26:17.178Z,995.07
2022-12-14T09:27:17.150Z,995.07
2022-12-14T09:28:17.122Z,995.07
2022-12-14T09:29:17.097Z,995.07
2022-12-14T09:30:21.690Z,995.11
2022-12-14T09:31:17.121Z,995.08
2022-12-14T09:32:17.019Z,995.10
2022-12-14T09:33:17.003Z,995.06
2022-12-14T09:34:16.966Z,995.10
2022-12-14T09:35:16.931Z,995.08
2022-12-14T09:36:16.905Z,995.09
2022-12-14T09:37:16.878Z,995.07
2022-12-14T09:38:16.865Z,995.12
2022-12-14T09:39:16.822Z,995.11
2022-12-14T09:40:16.801Z,995.13
2022-12-14T09:41:16.776Z,995.13
2022-12-14T09:42:16.744Z,995.13
2022-12-14T09:43:16.719Z,995.36
2022-12-14T09:44:18.829Z,995.59
2022-12-14T09:45:16.675Z,995.69
2022-12-14T09:46:16.686Z,995.68
2022-12-14T09:47:16.609Z,995.72
2022-12-14T09:48:16.593Z,996.28
2022-12-14T09:49:16.577Z,995.56
2022-12-14T09:50:16.536Z,995.69
2022-12-14T09:51:16.586Z,996.11
2022-12-14T09:52:16.490Z,996.34
2022-12-14T09:53:16.468Z,996.00
2022-12-14T09:54:16.441Z,996.56
2022-12-14T09:55:16.420Z,996.37
2022-12-14T09:56:16.395Z,995.87
2022-12-14T09:57:16.373Z,995.47
2022-12-14T09:58:16.381Z,995.42
2022-12-14T09:59:16.317Z,995.75
2022-12-14T10:00:16.308Z,995.71
2022-12-14T10:01:16.442Z,996.05
2022-12-14T10:02:32.512Z,996.14
2022-12-14T10:03:16.481Z,996.71
2022-12-14T10:04:16.379Z,995.99
2022-12-14T10:05:16.195Z,995.81
2022-12-14T10:06:16.161Z,996.45
2022-12-14T10:07:16.141Z,996.97
2022-12-14T10:08:16.117Z,997.06
2022-12-14T10:09:16.095Z,997.06
2022-12-14T10:10:16.077Z,996.96
2022-12-14T10:11:16.060Z,996.93
2022-12-14T10:12:16.039Z,996.87
2022-12-14T10:13:16.015Z,996.85
2022-12-14T10:14:16.007Z,996.78
2022-12-14T10:15:15.984Z,996.81
2022-12-14T10:16:16.088Z,996.80
2022-12-14T10:17:15.997Z,996.72
2022-12-14T10:18:49.352Z,996.61
2022-12-14T10:19:15.902Z,996.64
2022-12-14T10:20:15.888Z,996.63
2022-12-14T10:21:15.866Z,996.57
2022-12-14T10:22:15.850Z,996.63
2022-12-14T10:23:19.478Z,996.56
2022-12-14T10:24:15.819Z,996.57
2022-12-14T10:25:15.799Z,996.57
2022-12-14T10:26:15.781Z,996.53
2022-12-14T10:27:15.768Z,996.53
2022-12-14T10:28:15.782Z,996.57
2022-12-14T10:29:15.730Z,996.59
2022-12-14T10:30:15.733Z,996.59
2022-12-14T10:31:15.724Z,996.53
2022-12-14T10:32:15.684Z,996.52
2022-12-14T10:33:15.662Z,996.45
2022-12-14T10:34:15.656Z,996.35
2022-12-14T10:35:15.636Z,996.28
2022-12-14T10:36:15.626Z,996.19
2022-12-14T10:37:15.603Z,996.13
2022-12-14T10:38:15.590Z,996.10
2022-12-14T10:39:15.577Z,996.07
2022-12-14T10:40:24.705Z,996.10
2022-12-14T10:41:15.536Z,996.05
2022-12-14T10:42:15.523Z,996.03
2022-12-14T10:43:15.506Z,996.01
2022-12-14T10:44:15.490Z,995.95
2022-12-14T10:45:39.596Z,995.93
2022-12-14T10:46:15.540Z,995.88
2022-12-14T10:47:15.439Z,995.85
2022-12-14T10:48:15.779Z,995.84
2022-12-14T10:49:16.382Z,995.83
2022-12-14T10:50:15.802Z,995.87
2022-12-14T10:51:15.703Z,995.92
2022-12-14T10:52:15.399Z,995.91
2022-12-14T10:53:15.354Z,995.97
2022-12-14T10:54:15.336Z,995.98
2022-12-14T10:55:15.315Z,995.97
2022-12-14T10:56:15.458Z,995.92
2022-12-14T10:57:15.280Z,995.81
2022-12-14T10:58:15.279Z,995.69
2022-12-14T10:59:15.246Z,995.71
2022-12-14T11:00:22.655Z,995.72
2022-12-14T11:01:15.426Z,995.68
2022-12-14T11:02:16.199Z,995.61
2022-12-14T11:03:15.682Z,995.60
2022-12-14T11:04:15.498Z,995.61
2022-12-14T11:05:15.482Z,995.64
2022-12-14T11:06:15.174Z,995.64
2022-12-14T11:08:01.122Z,995.64
2022-12-14T11:08:15.122Z,995.57
2022-12-14T11:12:15.189Z,995.36
2022-12-14T11:13:15.028Z,995.37
2022-12-14T11:14:15.012Z,995.36
2022-12-14T11:15:15.018Z,995.40
2022-12-14T11:16:15.086Z,995.39
2022-12-14T11:17:15.136Z,995.32
2022-12-14T11:18:15.135Z,995.32
2022-12-14T11:19:14.970Z,995.38
2022-12-14T11:20:14.938Z,995.47
2022-12-14T11:21:14.895Z,995.40
2022-12-14T11:22:22.058Z,995.38
2022-12-14T11:23:14.839Z,995.34
2022-12-14T11:24:14.865Z,995.31
2022-12-14T11:25:15.164Z,995.29
2022-12-14T11:26:14.830Z,995.19
2022-12-14T11:27:14.815Z,995.16
2022-12-14T11:28:14.782Z,995.18
2022-12-14T11:29:14.774Z,995.27
2022-12-14T11:30:14.737Z,995.27
2022-12-14T11:31:15.114Z,995.37
2022-12-14T11:32:14.709Z,995.45
2022-12-14T11:35:14.645Z,995.53
2022-12-14T11:36:14.624Z,995.54
2022-12-14T11:37:15.305Z,995.55
2022-12-14T11:38:14.586Z,995.46
2022-12-14T11:39:14.596Z,995.45
2022-12-14T11:40:14.557Z,995.39
2022-12-14T11:41:14.528Z,995.31
2022-12-14T11:42:14.505Z,995.27
2022-12-14T11:43:14.519Z,995.23
2022-12-14T11:44:14.479Z,995.14
2022-12-14T11:45:14.460Z,995.13
2022-12-14T11:46:14.539Z,995.14
2022-12-14T11:47:14.410Z,995.08
2022-12-14T11:48:14.395Z,995.07
2022-12-14T11:49:14.375Z,995.08
2022-12-14T11:50:14.319Z,995.08
2022-12-14T11:51:14.309Z,995.06
2022-12-14T11:52:14.262Z,995.05
2022-12-14T11:53:14.250Z,995.06
2022-12-14T11:54:14.229Z,995.08
2022-12-14T11:55:14.233Z,995.00
2022-12-14T11:56:14.209Z,995.05
2022-12-14T11:57:14.178Z,995.02
2022-12-14T11:58:15.597Z,995.03
2022-12-14T11:59:15.058Z,995.01
2022-12-14T12:00:15.028Z,995.02
2022-12-14T12:01:14.432Z,995.03
2022-12-14T12:02:14.853Z,995.01
2022-12-14T12:03:14.412Z,995.02
2022-12-14T12:04:14.180Z,995.03
2022-12-14T12:05:14.076Z,995.05
2022-12-14T12:06:14.218Z,995.02
2022-12-14T12:07:14.195Z,995.06
2022-12-14T12:08:13.991Z,995.04
2022-12-14T12:09:14.160Z,994.98
2022-12-14T12:10:14.238Z,995.06
2022-12-14T12:11:13.931Z,995.02
2022-12-14T12:12:13.934Z,995.00
2022-12-14T12:13:13.876Z,995.03
2022-12-14T12:14:13.872Z,995.03
2022-12-14T12:15:13.841Z,995.06
2022-12-14T12:16:13.964Z,995.06
2022-12-14T12:17:13.809Z,995.06
2022-12-14T12:18:13.793Z,995.02
2022-12-14T12:19:13.770Z,995.00
2022-12-14T12:20:13.757Z,994.98
2022-12-14T12:21:13.751Z,994.94
2022-12-14T12:22:13.715Z,994.87
2022-12-14T12:23:13.702Z,994.84
2022-12-14T12:24:13.683Z,994.80
2022-12-14T12:25:26.590Z,994.78
2022-12-14T12:26:13.643Z,994.78
2022-12-14T12:27:13.628Z,994.79
2022-12-14T12:28:13.612Z,994.78
2022-12-14T12:29:13.599Z,994.78
2022-12-14T12:30:13.572Z,994.83
2022-12-14T12:31:13.640Z,994.85
2022-12-14T12:32:13.551Z,994.86
2022-12-14T12:33:13.518Z,994.87